createdAt,value
2023-02-12T00:01:36.475Z,59.10
2023-02-12T00:04:24.993Z,59.59
2023-02-12T00:07:13.219Z,59.29
2023-02-12T00:09:54.953Z,56.58
2023-02-12T00:12:37.142Z,57.72
2023-02-12T00:15:26.052Z,56.93
2023-02-12T00:18:15.272Z,58.11
2023-02-12T00:20:56.967Z,57.55
2023-02-12T00:23:47.324Z,56.51
2023-02-12T00:26:30.944Z,57.08
2023-02-12T00:29:13.152Z,57.50
2023-02-12T00:32:01.967Z,56.16
2023-02-12T00:34:50.178Z,58.11
2023-02-12T00:37:32.009Z,58.62
2023-02-12T00:40:21.224Z,56.52
2023-02-12T00:43:02.924Z,57.37
2023-02-12T00:45:53.413Z,58.01
2023-02-12T00:48:36.948Z,56.39
2023-02-12T00:51:25.221Z,55.39
2023-02-12T00:54:06.961Z,55.85
2023-02-12T00:56:57.015Z,54.80
2023-02-12T00:59:39.967Z,55.34
2023-02-12T01:02:28.857Z,56.83
2023-02-12T01:05:18.950Z,57.13
2023-02-12T01:08:01.277Z,55.76
2023-02-12T01:10:49.965Z,53.33
2023-02-12T01:13:42.952Z,56.03
2023-02-12T01:16:39.193Z,55.44
2023-02-12T01:19:28.911Z,56.07
2023-02-12T01:22:12.008Z,54.45
2023-02-12T01:25:00.251Z,53.89
2023-02-12T01:27:41.894Z,52.79
2023-02-12T01:30:31.519Z,54.04
2023-02-12T01:33:25.942Z,53.12
2023-02-12T01:36:15.345Z,53.17
2023-02-12T01:38:57.902Z,52.01
2023-02-12T01:41:52.131Z,52.94
2023-02-12T01:44:38.360Z,53.26
2023-02-12T01:47:26.921Z,52.70
2023-02-12T01:50:09.274Z,52.18
2023-02-12T01:53:05.188Z,51.94
2023-02-12T01:55:51.192Z,53.63
2023-02-12T01:58:46.920Z,53.22
2023-02-12T02:01:43.382Z,52.82
2023-02-12T02:04:37.168Z,53.92
2023-02-12T02:07:19.939Z,56.08
2023-02-12T02:10:09.244Z,53.58
2023-02-12T02:13:09.972Z,55.41
2023-02-12T02:16:05.259Z,54.31
2023-02-12T02:19:01.032Z,55.11
2023-02-12T02:22:30.235Z,56.21
2023-02-12T02:25:39.967Z,56.28
2023-02-12T02:28:55.659Z,54.75
2023-02-12T02:31:55.015Z,56.64
2023-02-12T02:34:55.998Z,56.20
2023-02-12T02:37:47.323Z,52.93
2023-02-12T02:40:46.077Z,55.24
2023-02-12T02:43:52.083Z,57.01
2023-02-12T02:46:57.040Z,54.54
2023-02-12T02:50:00.210Z,53.57
2023-02-12T02:52:48.940Z,53.00
2023-02-12T02:55:45.886Z,52.79
2023-02-12T02:58:43.967Z,47.54
2023-02-12T03:01:32.612Z,46.62
2023-02-12T03:04:26.960Z,47.56
2023-02-12T03:07:52.990Z,48.07
2023-02-12T03:10:44.227Z,47.07
2023-02-12T03:13:42.927Z,47.14
2023-02-12T03:16:33.431Z,46.77
2023-02-12T03:19:32.958Z,45.37
2023-02-12T03:22:20.294Z,44.61
2023-02-12T03:25:25.881Z,44.04
2023-02-12T03:28:31.935Z,42.66
2023-02-12T03:31:20.207Z,43.74
2023-02-12T03:34:27.032Z,42.78
2023-02-12T03:37:41.246Z,43.50
2023-02-12T03:40:31.963Z,43.15
2023-02-12T03:43:44.333Z,39.00
2023-02-12T03:46:29.982Z,36.85
2023-02-12T03:49:46.860Z,34.00
2023-02-12T03:52:35.942Z,36.34
2023-02-12T03:55:19.369Z,34.90
2023-02-12T03:58:14.921Z,32.78
2023-02-12T04:01:04.929Z,31.78
2023-02-12T04:03:47.234Z,30.10
2023-02-12T04:06:36.907Z,29.61
2023-02-12T04:09:27.829Z,29.44
2023-02-12T04:12:20.892Z,29.07
2023-02-12T04:15:15.247Z,27.79
2023-02-12T04:18:12.983Z,25.12
2023-02-12T04:21:23.298Z,26.09
2023-02-12T04:24:18.837Z,28.17
2023-02-12T04:27:31.148Z,25.93
2023-02-12T04:31:04.072Z,24.86
2023-02-12T04:34:15.781Z,24.02
2023-02-12T04:37:17.906Z,22.88
2023-02-12T04:40:08.962Z,24.78
2023-02-12T04:43:00.136Z,22.48
2023-02-12T04:45:43.912Z,25.36
2023-02-12T04:48:32.247Z,24.31
2023-02-12T04:51:14.293Z,23.34
2023-02-12T04:54:02.236Z,22.81
2023-02-12T04:56:44.966Z,23.49
2023-02-12T04:59:34.230Z,21.46
2023-02-12T05:02:16.865Z,24.81
2023-02-12T05:05:05.258Z,23.36
2023-02-12T05:07:47.975Z,23.79
2023-02-12T05:10:37.170Z,25.42
2023-02-12T05:13:19.850Z,23.94
2023-02-12T05:16:04.973Z,24.67
2023-02-12T05:18:54.038Z,25.09
2023-02-12T05:21:43.238Z,23.70
2023-02-12T05:24:25.991Z,22.77
2023-02-12T05:27:16.321Z,22.15
2023-02-12T05:29:57.927Z,23.48
2023-02-12T05:32:46.269Z,24.14
2023-02-12T05:35:40.873Z,22.72
2023-02-12T05:38:30.748Z,24.67
2023-02-12T05:41:18.973Z,22.55
2023-02-12T05:44:08.410Z,24.49
2023-02-12T05:46:50.980Z,25.48
2023-02-12T05:49:40.221Z,24.29
2023-02-12T05:52:22.881Z,22.85
2023-02-12T05:55:12.172Z,25.81
2023-02-12T05:57:54.611Z,24.24
2023-02-12T06:00:44.360Z,24.38
2023-02-12T06:03:25.955Z,25.13
2023-02-12T06:06:15.011Z,25.11
2023-02-12T06:08:59.404Z,25.82
2023-02-12T06:11:47.979Z,25.22
2023-02-12T06:14:31.911Z,24.96
2023-02-12T06:17:20.875Z,25.38
2023-02-12T06:20:03.139Z,25.29
2023-02-12T06:22:51.934Z,26.07
2023-02-12T06:25:34.229Z,24.30
2023-02-12T06:28:23.055Z,26.62
2023-02-12T06:31:05.335Z,25.06
2023-02-12T06:33:53.964Z,25.42
2023-02-12T06:36:45.661Z,25.33
2023-02-12T06:39:28.898Z,26.04
2023-02-12T06:42:17.368Z,24.58
2023-02-12T06:45:00.004Z,25.26
2023-02-12T06:47:48.218Z,23.13
2023-02-12T06:50:30.966Z,23.17
2023-02-12T06:53:19.232Z,24.07
2023-02-12T06:56:01.976Z,24.85
2023-02-12T06:58:53.192Z,23.97
2023-02-12T07:01:38.186Z,22.04
2023-02-12T07:04:26.229Z,25.40
2023-02-12T07:07:08.997Z,23.90
2023-02-12T07:09:57.172Z,23.06
2023-02-12T07:12:41.911Z,25.05
2023-02-12T07:15:30.172Z,24.14
2023-02-12T07:18:12.953Z,24.72
2023-02-12T07:20:57.893Z,25.07
2023-02-12T07:23:51.032Z,26.61
2023-02-12T07:26:40.182Z,24.44
2023-02-12T07:29:22.956Z,23.81
2023-02-12T07:32:12.040Z,25.81
2023-02-12T07:34:55.342Z,24.79
2023-02-12T07:37:43.954Z,24.41
2023-02-12T07:40:26.188Z,25.65
2023-02-12T07:43:14.904Z,23.52
2023-02-12T07:46:03.902Z,23.20
2023-02-12T07:48:54.260Z,22.87
2023-02-12T07:51:36.917Z,23.62
2023-02-12T07:54:26.137Z,24.31
2023-02-12T07:57:08.969Z,22.98
2023-02-12T07:59:51.119Z,25.21
2023-02-12T08:02:40.965Z,25.21
2023-02-12T08:05:30.236Z,23.72
2023-02-12T08:08:13.272Z,21.56
2023-02-12T08:11:04.137Z,20.59
2023-02-12T08:13:47.002Z,21.58
2023-02-12T08:16:30.920Z,22.77
2023-02-12T08:19:24.880Z,23.63
2023-02-12T08:22:14.201Z,25.10
2023-02-12T08:24:55.843Z,21.17
2023-02-12T08:27:44.207Z,19.11
2023-02-12T08:30:27.092Z,20.08
2023-02-12T08:33:15.247Z,18.74
2023-02-12T08:36:18.876Z,19.97
2023-02-12T08:39:02.232Z,19.39
2023-02-12T08:41:50.977Z,20.86
2023-02-12T08:44:34.157Z,18.78
2023-02-12T08:47:22.875Z,19.23
2023-02-12T08:50:05.146Z,17.71
2023-02-12T08:52:53.959Z,20.58
2023-02-12T08:55:36.193Z,21.10
2023-02-12T08:58:24.924Z,20.74
2023-02-12T09:01:08.252Z,21.39
2023-02-12T09:03:57.956Z,21.01
2023-02-12T09:06:42.297Z,19.91
2023-02-12T09:09:31.199Z,19.92
2023-02-12T09:12:13.188Z,20.86
2023-02-12T09:15:01.954Z,22.99
2023-02-12T09:17:44.818Z,21.24
2023-02-12T09:20:33.911Z,21.29
2023-02-12T09:23:21.229Z,20.04
2023-02-12T09:26:13.999Z,20.05
2023-02-12T09:28:58.300Z,19.95
2023-02-12T09:31:47.034Z,19.05
2023-02-12T09:34:29.262Z,21.78
2023-02-12T09:37:17.960Z,21.02
2023-02-12T09:40:00.206Z,21.12
2023-02-12T09:43:11.825Z,22.07
2023-02-12T09:46:25.737Z,20.55
2023-02-12T09:49:22.872Z,20.11
2023-02-12T09:52:13.775Z,19.86
2023-02-12T09:55:03.882Z,20.03
2023-02-12T09:57:46.423Z,20.75
2023-02-12T10:00:40.002Z,20.34
2023-02-12T10:03:25.283Z,20.57
2023-02-12T10:06:19.903Z,20.64
2023-02-12T10:09:19.411Z,20.96
2023-02-12T10:12:46.853Z,20.94
2023-02-12T10:15:53.437Z,21.85
2023-02-12T10:18:59.904Z,21.32
2023-02-12T10:21:52.180Z,20.84
2023-02-12T10:25:02.941Z,19.82
2023-02-12T10:27:54.198Z,20.75
2023-02-12T10:30:55.081Z,20.74
2023-02-12T10:33:47.457Z,19.92
2023-02-12T10:36:53.351Z,19.80
2023-02-12T10:39:50.357Z,20.08
2023-02-12T10:42:51.943Z,21.35
2023-02-12T10:45:45.194Z,21.28
2023-02-12T10:48:40.919Z,20.26
2023-02-12T10:51:44.206Z,21.59
2023-02-12T10:54:49.060Z,19.53
2023-02-12T10:57:33.151Z,20.54
2023-02-12T11:00:37.181Z,20.80
2023-02-12T11:03:22.601Z,20.32
2023-02-12T11:06:38.956Z,19.80
2023-02-12T11:09:48.355Z,21.07
2023-02-12T11:12:50.969Z,21.70
2023-02-12T11:15:38.201Z,21.83
2023-02-12T11:18:34.944Z,21.38
2023-02-12T11:21:21.335Z,20.24
2023-02-12T11:24:34.962Z,21.29
2023-02-12T11:27:37.396Z,19.56
2023-02-12T11:30:28.926Z,20.42
2023-02-12T11:33:40.287Z,21.03
2023-02-12T11:36:33.881Z,22.02
2023-02-12T11:39:28.172Z,21.10
2023-02-12T11:42:32.381Z,20.97
2023-02-12T11:45:15.186Z,21.20
2023-02-12T11:48:03.864Z,20.42
2023-02-12T11:50:46.307Z,20.50
2023-02-12T11:53:49.962Z,20.65
2023-02-12T11:56:48.338Z,22.50
2023-02-12T11:59:47.936Z,22.46
2023-02-12T12:02:57.202Z,23.91
2023-02-12T12:05:54.014Z,21.31
2023-02-12T12:08:52.167Z,20.85
2023-02-12T12:12:00.946Z,20.06
2023-02-12T12:15:06.768Z,20.71
2023-02-12T12:18:22.887Z,20.27
2023-02-12T12:21:24.247Z,18.70
2023-02-12T12:24:21.862Z,19.28
2023-02-12T12:27:31.805Z,21.37
2023-02-12T12:30:52.826Z,22.08
2023-02-12T12:33:57.947Z,23.79
2023-02-12T12:37:08.415Z,24.54
2023-02-12T12:40:23.849Z,23.96
2023-02-12T12:43:24.301Z,23.94
2023-02-12T12:46:08.902Z,24.56
2023-02-12T12:49:21.386Z,27.38
2023-02-12T12:52:36.889Z,24.69
2023-02-12T12:55:42.822Z,27.22
2023-02-12T12:58:57.950Z,27.74
2023-02-12T13:02:04.266Z,28.57
2023-02-12T13:04:59.942Z,30.02
2023-02-12T13:08:04.154Z,30.12
2023-02-12T13:11:08.863Z,31.73
2023-02-12T13:14:03.170Z,33.17
2023-02-12T13:17:20.834Z,31.68
2023-02-12T13:20:39.885Z,32.08
2023-02-12T13:23:39.142Z,31.39
2023-02-12T13:26:30.930Z,31.70
2023-02-12T13:29:16.302Z,31.89
2023-02-12T13:32:14.112Z,30.85
2023-02-12T13:35:11.183Z,30.76
2023-02-12T13:38:04.005Z,32.81
2023-02-12T13:40:50.684Z,33.36
2023-02-12T13:43:55.824Z,32.51
2023-02-12T13:47:00.266Z,32.97
2023-02-12T13:50:05.011Z,33.48
2023-02-12T13:53:15.403Z,33.18
2023-02-12T13:56:35.888Z,34.71
2023-02-12T13:59:37.363Z,34.46
2023-02-12T14:02:46.050Z,35.30
2023-02-12T14:05:39.236Z,35.21
2023-02-12T14:08:44.917Z,34.36
2023-02-12T14:11:34.250Z,34.00
2023-02-12T14:14:35.909Z,33.69
2023-02-12T14:17:44.200Z,33.07
2023-02-12T14:20:48.194Z,35.45
2023-02-12T14:23:38.309Z,33.08
2023-02-12T14:26:29.909Z,34.83
2023-02-12T14:29:25.882Z,34.25
2023-02-12T14:32:52.952Z,34.19
2023-02-12T14:35:58.001Z,33.33
2023-02-12T14:38:49.874Z,32.84
2023-02-12T14:41:38.612Z,33.34
2023-02-12T14:44:30.927Z,32.32
2023-02-12T14:47:24.260Z,33.97
2023-02-12T14:50:30.998Z,34.10
2023-02-12T14:53:36.436Z,34.24
2023-02-12T14:56:30.954Z,34.08
2023-02-12T14:59:23.445Z,35.30
2023-02-12T15:02:13.896Z,33.99
2023-02-12T15:04:58.487Z,34.56
2023-02-12T15:08:07.845Z,32.67
2023-02-12T15:11:04.982Z,35.51
2023-02-12T15:14:09.698Z,33.48
2023-02-12T15:17:01.831Z,33.82
2023-02-12T15:19:56.263Z,34.22
2023-02-12T15:22:59.248Z,33.51
2023-02-12T15:25:41.993Z,35.64
2023-02-12T15:28:45.924Z,34.18
2023-02-12T15:31:37.397Z,33.33
2023-02-12T15:34:28.855Z,33.81
2023-02-12T15:37:31.944Z,35.13
2023-02-12T15:40:24.188Z,33.81
2023-02-12T15:43:15.869Z,33.47
2023-02-12T15:45:58.506Z,37.25
2023-02-12T15:48:51.861Z,34.75
2023-02-12T15:51:48.097Z,36.62
2023-02-12T15:54:30.893Z,36.89
2023-02-12T15:57:27.293Z,36.25
2023-02-12T16:00:30.930Z,35.02
2023-02-12T16:03:38.327Z,35.29
2023-02-12T16:06:24.962Z,38.48
2023-02-12T16:09:31.237Z,37.84
2023-02-12T16:12:20.870Z,34.55
2023-02-12T16:15:11.943Z,34.67
2023-02-12T16:17:56.902Z,33.28
2023-02-12T16:20:47.865Z,33.96
2023-02-12T16:23:31.905Z,33.47
2023-02-12T16:26:22.872Z,33.91
2023-02-12T16:29:12.818Z,33.38
2023-02-12T16:32:05.328Z,33.69
2023-02-12T16:34:47.834Z,33.35
2023-02-12T16:37:46.740Z,35.86
2023-02-12T16:40:34.241Z,34.86
2023-02-12T16:43:34.231Z,36.95
2023-02-12T16:46:17.656Z,35.91
2023-02-12T16:49:09.298Z,37.68
2023-02-12T16:51:51.883Z,37.29
2023-02-12T16:54:49.810Z,37.52
2023-02-12T16:57:38.753Z,36.69
2023-02-12T17:00:32.799Z,35.39
2023-02-12T17:03:23.013Z,35.49
2023-02-12T17:06:05.130Z,36.33
2023-02-12T17:08:54.137Z,36.04
2023-02-12T17:11:37.070Z,35.55
2023-02-12T17:14:27.874Z,34.92
2023-02-12T17:17:10.366Z,34.68
2023-02-12T17:20:00.909Z,34.74
2023-02-12T17:22:43.172Z,35.54
2023-02-12T17:25:31.832Z,36.00
2023-02-12T17:28:14.375Z,37.48
2023-02-12T17:31:02.990Z,37.06
2023-02-12T17:33:45.530Z,37.17
2023-02-12T17:36:41.843Z,36.81
2023-02-12T17:39:30.202Z,36.49
2023-02-12T17:42:13.842Z,36.05
2023-02-12T17:45:03.259Z,37.10
2023-02-12T17:47:47.887Z,36.88
2023-02-12T17:50:37.263Z,36.72
2023-02-12T17:53:21.132Z,37.16
2023-02-12T17:56:09.221Z,38.17
2023-02-12T17:58:51.875Z,38.07
2023-02-12T18:01:42.115Z,36.01
2023-02-12T18:04:25.026Z,36.40
2023-02-12T18:07:13.229Z,35.85
2023-02-12T18:09:55.878Z,36.72
2023-02-12T18:12:44.162Z,37.46
2023-02-12T18:15:28.795Z,36.63
2023-02-12T18:18:19.110Z,36.19
2023-02-12T18:21:01.820Z,35.33
2023-02-12T18:23:51.245Z,36.11
2023-02-12T18:26:33.898Z,37.21
2023-02-12T18:29:22.198Z,37.23
2023-02-12T18:32:04.822Z,37.75
2023-02-12T18:34:54.104Z,36.70
2023-02-12T18:37:49.877Z,37.29
2023-02-12T18:40:32.067Z,37.84
2023-02-12T18:43:20.837Z,37.47
2023-02-12T18:46:17.968Z,36.85
2023-02-12T18:49:00.220Z,36.32
2023-02-12T18:51:48.836Z,35.91
2023-02-12T18:54:31.145Z,36.48
2023-02-12T18:57:19.805Z,36.25
2023-02-12T19:00:08.824Z,37.79
2023-02-12T19:02:57.104Z,36.91
2023-02-12T19:05:39.784Z,37.17
2023-02-12T19:08:22.150Z,37.14
2023-02-12T19:11:10.824Z,36.13
2023-02-12T19:14:00.335Z,36.71
2023-02-12T19:16:43.870Z,37.14
2023-02-12T19:19:33.317Z,37.72
2023-02-12T19:22:14.802Z,38.00
2023-02-12T19:25:05.152Z,38.38
2023-02-12T19:27:47.871Z,38.56
2023-02-12T19:30:37.130Z,37.09
2023-02-12T19:33:25.809Z,38.46
2023-02-12T19:36:23.898Z,39.16
2023-02-12T19:39:13.097Z,40.37
2023-02-12T19:41:55.846Z,39.20
2023-02-12T19:44:45.651Z,40.22
2023-02-12T19:47:28.816Z,39.10
2023-02-12T19:50:18.120Z,42.72
2023-02-12T19:53:00.868Z,39.31
2023-02-12T19:55:49.131Z,40.76
2023-02-12T19:58:30.762Z,42.02
2023-02-12T20:01:27.271Z,39.25
2023-02-12T20:04:10.823Z,39.23
2023-02-12T20:07:00.241Z,41.14
2023-02-12T20:09:42.765Z,39.71
2023-02-12T20:12:31.135Z,40.11
2023-02-12T20:15:13.785Z,39.18
2023-02-12T20:18:02.163Z,39.63
2023-02-12T20:20:45.199Z,40.66
2023-02-12T20:23:34.145Z,40.09
2023-02-12T20:26:19.860Z,40.28
2023-02-12T20:29:09.086Z,39.62
2023-02-12T20:31:52.976Z,40.98
2023-02-12T20:34:50.621Z,41.76
2023-02-12T20:37:46.802Z,42.26
2023-02-12T20:40:29.032Z,41.86
2023-02-12T20:43:17.818Z,41.52
2023-02-12T20:46:20.141Z,41.35
2023-02-12T20:49:03.803Z,40.95
2023-02-12T20:51:53.788Z,42.68
2023-02-12T20:54:42.716Z,41.55
2023-02-12T20:57:32.818Z,39.82
2023-02-12T21:00:17.088Z,39.69
2023-02-12T21:03:05.817Z,39.12
2023-02-12T21:05:48.076Z,39.68
2023-02-12T21:08:36.843Z,38.86
2023-02-12T21:11:25.101Z,39.39
2023-02-12T21:14:21.796Z,39.41
2023-02-12T21:17:11.839Z,41.33
2023-02-12T21:20:00.128Z,40.14
2023-02-12T21:22:41.840Z,40.28
2023-02-12T21:25:24.119Z,41.12
2023-02-12T21:28:12.767Z,39.69
2023-02-12T21:31:01.172Z,40.89
2023-02-12T21:33:43.830Z,40.62
2023-02-12T21:36:44.646Z,41.33
2023-02-12T21:39:35.860Z,41.65
2023-02-12T21:42:18.107Z,40.37
2023-02-12T21:45:07.208Z,40.28
2023-02-12T21:47:49.146Z,39.76
2023-02-12T21:50:42.719Z,39.41
2023-02-12T21:53:25.102Z,41.09
2023-02-12T21:56:14.744Z,38.45
2023-02-12T21:58:58.032Z,38.34
2023-02-12T22:01:50.783Z,39.04
2023-02-12T22:04:39.716Z,37.59
2023-02-12T22:07:28.747Z,37.65
2023-02-12T22:10:11.058Z,38.87
2023-02-12T22:12:59.761Z,37.97
2023-02-12T22:15:42.026Z,38.99
2023-02-12T22:18:30.759Z,36.54
2023-02-12T22:21:15.088Z,38.50
2023-02-12T22:24:04.756Z,36.48
2023-02-12T22:26:53.783Z,36.75
2023-02-12T22:29:42.069Z,36.90
2023-02-12T22:32:24.971Z,36.10
2023-02-12T22:35:14.045Z,36.36
2023-02-12T22:38:02.848Z,36.20
2023-02-12T22:40:46.117Z,36.57
2023-02-12T22:43:37.710Z,37.65
2023-02-12T22:46:22.145Z,34.15
2023-02-12T22:49:10.796Z,35.36
2023-02-12T22:51:59.714Z,33.07
2023-02-12T22:54:49.033Z,34.50
2023-02-12T22:57:31.728Z,34.02
2023-02-12T23:00:14.417Z,34.01
2023-02-12T23:03:03.742Z,34.77
2023-02-12T23:05:45.928Z,35.30
2023-02-12T23:08:34.804Z,34.09
2023-02-12T23:11:23.700Z,34.77
2023-02-12T23:14:07.749Z,38.81
2023-02-12T23:16:57.165Z,36.53
2023-02-12T23:19:39.802Z,34.74
2023-02-12T23:22:28.051Z,33.43
2023-02-12T23:25:09.718Z,33.76
2023-02-12T23:27:58.000Z,33.74
2023-02-12T23:30:40.823Z,35.06
2023-02-12T23:33:29.046Z,33.69
2023-02-12T23:36:24.763Z,33.10
2023-02-12T23:39:13.007Z,34.99
2023-02-12T23:41:54.778Z,37.25
2023-02-12T23:44:43.101Z,36.54
2023-02-12T23:47:24.775Z,37.37
2023-02-12T23:50:15.173Z,36.94
2023-02-12T23:52:57.767Z,34.34
2023-02-12T23:55:48.086Z,34.34
2023-02-12T23:58:30.088Z,33.77
